sensor_id;sensor_type;location;lat;lon;timestamp;P1;durP1;ratioP1;P2;durP2;ratioP2
22107;SDS011;11220;48.812;9.128;2023-05-21T00:00:59;1.50;;;1.35;;
22107;SDS011;11220;48.812;9.128;2023-05-21T00:03:25;1.73;;;1.48;;
22107;SDS011;11220;48.812;9.128;2023-05-21T00:05:52;1.50;;;1.40;;
22107;SDS011;11220;48.812;9.128;2023-05-21T00:08:18;1.52;;;1.17;;
22107;SDS011;11220;48.812;9.128;2023-05-21T00:10:44;1.40;;;1.30;;
22107;SDS011;11220;48.812;9.128;2023-05-21T00:13:10;1.38;;;1.23;;
22107;SDS011;11220;48.812;9.128;2023-05-21T00:15:36;1.38;;;1.20;;
22107;SDS011;11220;48.812;9.128;2023-05-21T00:18:02;1.60;;;1.25;;
22107;SDS011;11220;48.812;9.128;2023-05-21T00:20:27;1.65;;;1.30;;
22107;SDS011;11220;48.812;9.128;2023-05-21T00:22:56;1.90;;;1.40;;
22107;SDS011;11220;48.812;9.128;2023-05-21T00:25:22;2.05;;;1.65;;
22107;SDS011;11220;48.812;9.128;2023-05-21T00:27:47;1.52;;;1.30;;
22107;SDS011;11220;48.812;9.128;2023-05-21T00:30:13;1.88;;;1.42;;
22107;SDS011;11220;48.812;9.128;2023-05-21T00:32:40;1.75;;;1.60;;
22107;SDS011;11220;48.812;9.128;2023-05-21T00:35:06;1.80;;;1.58;;
22107;SDS011;11220;48.812;9.128;2023-05-21T00:37:32;1.70;;;1.60;;
22107;SDS011;11220;48.812;9.128;2023-05-21T00:40:01;2.30;;;1.58;;
22107;SDS011;11220;48.812;9.128;2023-05-21T00:42:29;1.30;;;1.20;;
22107;SDS011;11220;48.812;9.128;2023-05-21T00:44:55;2.05;;;1.40;;
22107;SDS011;11220;48.812;9.128;2023-05-21T00:47:21;2.30;;;1.35;;
22107;SDS011;11220;48.812;9.128;2023-05-21T00:49:47;1.42;;;1.30;;
22107;SDS011;11220;48.812;9.128;2023-05-21T00:52:15;1.88;;;1.52;;
22107;SDS011;11220;48.812;9.128;2023-05-21T00:54:44;1.60;;;1.45;;
22107;SDS011;11220;48.812;9.128;2023-05-21T00:57:12;1.65;;;1.30;;
22107;SDS011;11220;48.812;9.128;2023-05-21T00:59:38;1.77;;;1.52;;
22107;SDS011;11220;48.812;9.128;2023-05-21T01:02:03;1.60;;;1.50;;
22107;SDS011;11220;48.812;9.128;2023-05-21T01:04:33;1.50;;;1.35;;
22107;SDS011;11220;48.812;9.128;2023-05-21T01:06:59;1.70;;;1.50;;
22107;SDS011;11220;48.812;9.128;2023-05-21T01:09:25;1.70;;;1.58;;
22107;SDS011;11220;48.812;9.128;2023-05-21T01:11:52;1.73;;;1.38;;
22107;SDS011;11220;48.812;9.128;2023-05-21T01:14:19;2.00;;;1.60;;
22107;SDS011;11220;48.812;9.128;2023-05-21T01:16:47;1.50;;;1.40;;
22107;SDS011;11220;48.812;9.128;2023-05-21T01:19:14;1.83;;;1.40;;
22107;SDS011;11220;48.812;9.128;2023-05-21T01:21:45;1.70;;;1.50;;
22107;SDS011;11220;48.812;9.128;2023-05-21T01:24:15;1.50;;;1.40;;
22107;SDS011;11220;48.812;9.128;2023-05-21T01:26:41;1.65;;;1.45;;
22107;SDS011;11220;48.812;9.128;2023-05-21T01:29:08;2.03;;;1.40;;
22107;SDS011;11220;48.812;9.128;2023-05-21T01:34:09;1.85;;;1.70;;
22107;SDS011;11220;48.812;9.128;2023-05-21T01:36:39;1.60;;;1.50;;
22107;SDS011;11220;48.812;9.128;2023-05-21T01:39:26;2.13;;;1.88;;
22107;SDS011;11220;48.812;9.128;2023-05-21T01:44:24;1.63;;;1.33;;
22107;SDS011;11220;48.812;9.128;2023-05-21T01:46:51;1.95;;;1.67;;
22107;SDS011;11220;48.812;9.128;2023-05-21T01:49:20;1.80;;;1.60;;
22107;SDS011;11220;48.812;9.128;2023-05-21T01:51:47;1.92;;;1.65;;
22107;SDS011;11220;48.812;9.128;2023-05-21T01:54:13;2.25;;;1.67;;
22107;SDS011;11220;48.812;9.128;2023-05-21T01:56:38;1.58;;;1.42;;
22107;SDS011;11220;48.812;9.128;2023-05-21T01:59:04;1.88;;;1.60;;
22107;SDS011;11220;48.812;9.128;2023-05-21T02:01:29;1.65;;;1.55;;
22107;SDS011;11220;48.812;9.128;2023-05-21T02:03:55;2.08;;;1.70;;
22107;SDS011;11220;48.812;9.128;2023-05-21T02:06:21;1.60;;;1.45;;
22107;SDS011;11220;48.812;9.128;2023-05-21T02:08:47;1.63;;;1.52;;
22107;SDS011;11220;48.812;9.128;2023-05-21T02:11:13;2.08;;;1.50;;
22107;SDS011;11220;48.812;9.128;2023-05-21T02:13:39;1.95;;;1.60;;
22107;SDS011;11220;48.812;9.128;2023-05-21T02:16:06;1.88;;;1.35;;
22107;SDS011;11220;48.812;9.128;2023-05-21T02:18:39;1.75;;;1.65;;
22107;SDS011;11220;48.812;9.128;2023-05-21T02:21:07;1.70;;;1.55;;
22107;SDS011;11220;48.812;9.128;2023-05-21T02:23:34;1.55;;;1.30;;
22107;SDS011;11220;48.812;9.128;2023-05-21T02:26:00;1.95;;;1.70;;
22107;SDS011;11220;48.812;9.128;2023-05-21T02:28:25;1.90;;;1.67;;
22107;SDS011;11220;48.812;9.128;2023-05-21T02:30:51;2.20;;;1.80;;
22107;SDS011;11220;48.812;9.128;2023-05-21T02:33:16;2.28;;;1.73;;
22107;SDS011;11220;48.812;9.128;2023-05-21T02:35:44;2.70;;;1.73;;
22107;SDS011;11220;48.812;9.128;2023-05-21T02:38:09;2.38;;;1.80;;
22107;SDS011;11220;48.812;9.128;2023-05-21T02:40:37;1.92;;;1.60;;
22107;SDS011;11220;48.812;9.128;2023-05-21T02:43:03;1.88;;;1.55;;
22107;SDS011;11220;48.812;9.128;2023-05-21T02:45:32;1.90;;;1.50;;
22107;SDS011;11220;48.812;9.128;2023-05-21T02:47:57;2.42;;;2.22;;
22107;SDS011;11220;48.812;9.128;2023-05-21T02:50:23;2.97;;;2.13;;
22107;SDS011;11220;48.812;9.128;2023-05-21T02:52:48;2.25;;;1.83;;
22107;SDS011;11220;48.812;9.128;2023-05-21T02:55:14;2.17;;;1.75;;
22107;SDS011;11220;48.812;9.128;2023-05-21T02:57:39;1.80;;;1.65;;
22107;SDS011;11220;48.812;9.128;2023-05-21T03:00:05;2.25;;;1.80;;
22107;SDS011;11220;48.812;9.128;2023-05-21T03:02:32;2.00;;;1.80;;
22107;SDS011;11220;48.812;9.128;2023-05-21T03:04:58;2.67;;;1.90;;
22107;SDS011;11220;48.812;9.128;2023-05-21T03:07:27;2.25;;;1.75;;
22107;SDS011;11220;48.812;9.128;2023-05-21T03:09:53;2.47;;;1.90;;
22107;SDS011;11220;48.812;9.128;2023-05-21T03:12:18;1.60;;;1.50;;
22107;SDS011;11220;48.812;9.128;2023-05-21T03:14:44;1.73;;;1.60;;
22107;SDS011;11220;48.812;9.128;2023-05-21T03:17:10;2.03;;;1.60;;
22107;SDS011;11220;48.812;9.128;2023-05-21T03:19:38;1.67;;;1.58;;
22107;SDS011;11220;48.812;9.128;2023-05-21T03:22:05;1.98;;;1.83;;
22107;SDS011;11220;48.812;9.128;2023-05-21T03:24:31;2.78;;;1.95;;
22107;SDS011;11220;48.812;9.128;2023-05-21T03:26:57;2.75;;;1.90;;
22107;SDS011;11220;48.812;9.128;2023-05-21T03:29:25;2.15;;;1.88;;
22107;SDS011;11220;48.812;9.128;2023-05-21T03:31:52;2.90;;;1.90;;
22107;SDS011;11220;48.812;9.128;2023-05-21T03:34:18;1.90;;;1.80;;
22107;SDS011;11220;48.812;9.128;2023-05-21T03:36:44;2.33;;;1.90;;
22107;SDS011;11220;48.812;9.128;2023-05-21T03:39:10;2.20;;;1.83;;
22107;SDS011;11220;48.812;9.128;2023-05-21T03:41:36;2.13;;;1.70;;
22107;SDS011;11220;48.812;9.128;2023-05-21T03:44:02;2.17;;;1.75;;
22107;SDS011;11220;48.812;9.128;2023-05-21T03:46:27;1.85;;;1.73;;
22107;SDS011;11220;48.812;9.128;2023-05-21T03:48:53;2.65;;;1.75;;
22107;SDS011;11220;48.812;9.128;2023-05-21T03:51:18;2.35;;;1.90;;
22107;SDS011;11220;48.812;9.128;2023-05-21T03:53:44;2.00;;;1.73;;
22107;SDS011;11220;48.812;9.128;2023-05-21T03:56:10;1.88;;;1.67;;
22107;SDS011;11220;48.812;9.128;2023-05-21T03:58:35;2.58;;;1.95;;
22107;SDS011;11220;48.812;9.128;2023-05-21T04:01:02;2.05;;;1.73;;
22107;SDS011;11220;48.812;9.128;2023-05-21T04:03:28;2.35;;;2.13;;
22107;SDS011;11220;48.812;9.128;2023-05-21T04:05:56;1.85;;;1.73;;
22107;SDS011;11220;48.812;9.128;2023-05-21T04:08:21;2.45;;;1.92;;
22107;SDS011;11220;48.812;9.128;2023-05-21T04:10:47;2.00;;;1.80;;
22107;SDS011;11220;48.812;9.128;2023-05-21T04:13:13;2.60;;;2.30;;
22107;SDS011;11220;48.812;9.128;2023-05-21T04:15:38;2.17;;;1.88;;
22107;SDS011;11220;48.812;9.128;2023-05-21T04:18:04;2.20;;;1.98;;
22107;SDS011;11220;48.812;9.128;2023-05-21T04:20:31;2.38;;;1.98;;
22107;SDS011;11220;48.812;9.128;2023-05-21T04:22:56;2.50;;;1.85;;
22107;SDS011;11220;48.812;9.128;2023-05-21T04:25:22;2.00;;;1.85;;
22107;SDS011;11220;48.812;9.128;2023-05-21T04:27:47;1.60;;;1.50;;
22107;SDS011;11220;48.812;9.128;2023-05-21T04:30:14;1.95;;;1.75;;
22107;SDS011;11220;48.812;9.128;2023-05-21T04:32:39;2.00;;;1.80;;
22107;SDS011;11220;48.812;9.128;2023-05-21T04:35:05;2.08;;;1.88;;
22107;SDS011;11220;48.812;9.128;2023-05-21T04:37:31;2.55;;;2.28;;
22107;SDS011;11220;48.812;9.128;2023-05-21T04:39:59;3.10;;;2.00;;
22107;SDS011;11220;48.812;9.128;2023-05-21T04:42:25;2.25;;;1.88;;
22107;SDS011;11220;48.812;9.128;2023-05-21T04:44:51;2.47;;;1.90;;
22107;SDS011;11220;48.812;9.128;2023-05-21T04:47:19;2.67;;;2.10;;
22107;SDS011;11220;48.812;9.128;2023-05-21T04:49:45;1.95;;;1.75;;
22107;SDS011;11220;48.812;9.128;2023-05-21T04:52:11;2.03;;;1.88;;
22107;SDS011;11220;48.812;9.128;2023-05-21T04:54:37;2.08;;;1.88;;
22107;SDS011;11220;48.812;9.128;2023-05-21T04:57:05;2.63;;;2.10;;
22107;SDS011;11220;48.812;9.128;2023-05-21T04:59:31;2.58;;;2.00;;
22107;SDS011;11220;48.812;9.128;2023-05-21T05:01:56;2.10;;;1.90;;
22107;SDS011;11220;48.812;9.128;2023-05-21T05:04:22;2.65;;;2.00;;
22107;SDS011;11220;48.812;9.128;2023-05-21T05:06:48;2.67;;;2.00;;
22107;SDS011;11220;48.812;9.128;2023-05-21T05:09:14;1.95;;;1.73;;
22107;SDS011;11220;48.812;9.128;2023-05-21T05:11:39;2.42;;;1.92;;
22107;SDS011;11220;48.812;9.128;2023-05-21T05:14:05;2.13;;;1.90;;
22107;SDS011;11220;48.812;9.128;2023-05-21T05:16:31;2.38;;;2.03;;
22107;SDS011;11220;48.812;9.128;2023-05-21T05:18:58;2.08;;;1.88;;
22107;SDS011;11220;48.812;9.128;2023-05-21T05:21:23;2.35;;;2.00;;
22107;SDS011;11220;48.812;9.128;2023-05-21T05:23:49;2.28;;;1.95;;
22107;SDS011;11220;48.812;9.128;2023-05-21T05:26:14;2.63;;;2.00;;
22107;SDS011;11220;48.812;9.128;2023-05-21T05:28:40;2.75;;;2.42;;
22107;SDS011;11220;48.812;9.128;2023-05-21T05:31:05;2.63;;;1.73;;
22107;SDS011;11220;48.812;9.128;2023-05-21T05:33:31;1.63;;;1.52;;
22107;SDS011;11220;48.812;9.128;2023-05-21T05:35:57;2.67;;;2.13;;
22107;SDS011;11220;48.812;9.128;2023-05-21T05:38:22;2.40;;;2.17;;
22107;SDS011;11220;48.812;9.128;2023-05-21T05:40:48;3.42;;;2.20;;
22107;SDS011;11220;48.812;9.128;2023-05-21T05:43:13;2.50;;;2.20;;
22107;SDS011;11220;48.812;9.128;2023-05-21T05:45:39;2.70;;;1.88;;
22107;SDS011;11220;48.812;9.128;2023-05-21T05:48:07;3.38;;;2.15;;
22107;SDS011;11220;48.812;9.128;2023-05-21T05:50:33;2.22;;;2.03;;
22107;SDS011;11220;48.812;9.128;2023-05-21T05:52:59;2.67;;;2.17;;
22107;SDS011;11220;48.812;9.128;2023-05-21T05:55:24;2.17;;;1.95;;
22107;SDS011;11220;48.812;9.128;2023-05-21T05:57:50;2.42;;;1.95;;
22107;SDS011;11220;48.812;9.128;2023-05-21T06:00:16;2.22;;;1.90;;
22107;SDS011;11220;48.812;9.128;2023-05-21T06:02:42;2.20;;;1.85;;
22107;SDS011;11220;48.812;9.128;2023-05-21T06:05:08;2.30;;;2.10;;
22107;SDS011;11220;48.812;9.128;2023-05-21T06:07:35;2.67;;;2.30;;
22107;SDS011;11220;48.812;9.128;2023-05-21T06:10:02;2.25;;;2.05;;
22107;SDS011;11220;48.812;9.128;2023-05-21T06:12:29;2.53;;;2.20;;
22107;SDS011;11220;48.812;9.128;2023-05-21T06:14:55;2.47;;;1.65;;
22107;SDS011;11220;48.812;9.128;2023-05-21T06:17:20;3.28;;;2.55;;
22107;SDS011;11220;48.812;9.128;2023-05-21T06:19:46;2.05;;;1.73;;
22107;SDS011;11220;48.812;9.128;2023-05-21T06:22:11;2.53;;;2.28;;
22107;SDS011;11220;48.812;9.128;2023-05-21T06:24:37;2.67;;;1.80;;
22107;SDS011;11220;48.812;9.128;2023-05-21T06:27:02;2.78;;;2.40;;
22107;SDS011;11220;48.812;9.128;2023-05-21T06:29:28;2.95;;;2.40;;
22107;SDS011;11220;48.812;9.128;2023-05-21T06:31:54;2.40;;;2.00;;
22107;SDS011;11220;48.812;9.128;2023-05-21T06:34:19;2.20;;;1.90;;
22107;SDS011;11220;48.812;9.128;2023-05-21T06:36:45;2.25;;;1.95;;
22107;SDS011;11220;48.812;9.128;2023-05-21T06:39:11;2.58;;;2.08;;
22107;SDS011;11220;48.812;9.128;2023-05-21T06:41:37;2.17;;;1.98;;
22107;SDS011;11220;48.812;9.128;2023-05-21T06:44:03;2.45;;;2.25;;
22107;SDS011;11220;48.812;9.128;2023-05-21T06:46:29;2.22;;;2.00;;
22107;SDS011;11220;48.812;9.128;2023-05-21T06:48:55;2.55;;;2.30;;
22107;SDS011;11220;48.812;9.128;2023-05-21T06:51:21;2.55;;;2.10;;
22107;SDS011;11220;48.812;9.128;2023-05-21T06:53:46;2.80;;;2.20;;
22107;SDS011;11220;48.812;9.128;2023-05-21T06:56:12;2.40;;;2.15;;
22107;SDS011;11220;48.812;9.128;2023-05-21T06:58:37;3.17;;;2.00;;
22107;SDS011;11220;48.812;9.128;2023-05-21T07:01:03;2.17;;;1.98;;
22107;SDS011;11220;48.812;9.128;2023-05-21T07:03:28;1.98;;;1.77;;
22107;SDS011;11220;48.812;9.128;2023-05-21T07:05:54;2.08;;;1.88;;
22107;SDS011;11220;48.812;9.128;2023-05-21T07:08:21;2.47;;;2.10;;
22107;SDS011;11220;48.812;9.128;2023-05-21T07:10:47;2.97;;;2.17;;
22107;SDS011;11220;48.812;9.128;2023-05-21T07:13:14;3.83;;;2.45;;
22107;SDS011;11220;48.812;9.128;2023-05-21T07:15:39;2.53;;;1.95;;
22107;SDS011;11220;48.812;9.128;2023-05-21T07:18:05;2.83;;;2.00;;
22107;SDS011;11220;48.812;9.128;2023-05-21T07:20:31;2.28;;;2.08;;
22107;SDS011;11220;48.812;9.128;2023-05-21T07:22:57;2.25;;;2.03;;
22107;SDS011;11220;48.812;9.128;2023-05-21T07:25:22;3.25;;;2.03;;
22107;SDS011;11220;48.812;9.128;2023-05-21T07:27:48;2.72;;;1.90;;
22107;SDS011;11220;48.812;9.128;2023-05-21T07:30:14;2.40;;;1.90;;
22107;SDS011;11220;48.812;9.128;2023-05-21T07:32:39;2.42;;;1.85;;
22107;SDS011;11220;48.812;9.128;2023-05-21T07:35:06;2.30;;;1.92;;
22107;SDS011;11220;48.812;9.128;2023-05-21T07:37:32;3.03;;;2.25;;
22107;SDS011;11220;48.812;9.128;2023-05-21T07:39:57;2.03;;;1.83;;
22107;SDS011;11220;48.812;9.128;2023-05-21T07:42:23;2.22;;;1.90;;
22107;SDS011;11220;48.812;9.128;2023-05-21T07:44:49;2.28;;;1.95;;
22107;SDS011;11220;48.812;9.128;2023-05-21T07:47:15;3.67;;;2.03;;
22107;SDS011;11220;48.812;9.128;2023-05-21T07:49:40;2.25;;;2.05;;
22107;SDS011;11220;48.812;9.128;2023-05-21T07:52:08;2.25;;;2.05;;
22107;SDS011;11220;48.812;9.128;2023-05-21T07:54:34;2.00;;;1.83;;
22107;SDS011;11220;48.812;9.128;2023-05-21T07:56:59;2.30;;;2.08;;
22107;SDS011;11220;48.812;9.128;2023-05-21T07:59:27;2.40;;;2.20;;
22107;SDS011;11220;48.812;9.128;2023-05-21T08:02:12;2.05;;;1.83;;
22107;SDS011;11220;48.812;9.128;2023-05-21T08:04:38;2.45;;;2.25;;
22107;SDS011;11220;48.812;9.128;2023-05-21T08:07:04;2.55;;;1.90;;
22107;SDS011;11220;48.812;9.128;2023-05-21T08:09:30;2.47;;;1.90;;
22107;SDS011;11220;48.812;9.128;2023-05-21T08:11:58;2.85;;;2.20;;
22107;SDS011;11220;48.812;9.128;2023-05-21T08:14:24;2.65;;;2.10;;
22107;SDS011;11220;48.812;9.128;2023-05-21T08:16:49;3.15;;;2.55;;
22107;SDS011;11220;48.812;9.128;2023-05-21T08:19:15;2.67;;;2.03;;
22107;SDS011;11220;48.812;9.128;2023-05-21T08:21:41;3.22;;;2.35;;
22107;SDS011;11220;48.812;9.128;2023-05-21T08:24:06;2.40;;;2.05;;
22107;SDS011;11220;48.812;9.128;2023-05-21T08:26:32;3.45;;;2.47;;
22107;SDS011;11220;48.812;9.128;2023-05-21T08:28:58;2.28;;;2.08;;
22107;SDS011;11220;48.812;9.128;2023-05-21T08:31:31;2.95;;;2.25;;
22107;SDS011;11220;48.812;9.128;2023-05-21T08:33:57;1.90;;;1.63;;
22107;SDS011;11220;48.812;9.128;2023-05-21T08:36:23;2.00;;;1.80;;
22107;SDS011;11220;48.812;9.128;2023-05-21T08:38:51;2.43;;;2.10;;
22107;SDS011;11220;48.812;9.128;2023-05-21T08:41:17;2.35;;;2.15;;
22107;SDS011;11220;48.812;9.128;2023-05-21T08:46:17;2.60;;;2.20;;
22107;SDS011;11220;48.812;9.128;2023-05-21T08:48:46;1.92;;;1.73;;
22107;SDS011;11220;48.812;9.128;2023-05-21T08:51:13;2.88;;;2.30;;
22107;SDS011;11220;48.812;9.128;2023-05-21T08:53:39;1.98;;;1.77;;
22107;SDS011;11220;48.812;9.128;2023-05-21T08:56:05;2.47;;;2.10;;
22107;SDS011;11220;48.812;9.128;2023-05-21T08:58:31;2.83;;;2.38;;
22107;SDS011;11220;48.812;9.128;2023-05-21T09:00:57;2.22;;;1.75;;
22107;SDS011;11220;48.812;9.128;2023-05-21T09:03:23;2.17;;;1.70;;
22107;SDS011;11220;48.812;9.128;2023-05-21T09:05:49;2.53;;;1.92;;
22107;SDS011;11220;48.812;9.128;2023-05-21T09:11:00;2.55;;;2.15;;
22107;SDS011;11220;48.812;9.128;2023-05-21T09:13:26;1.95;;;1.77;;
22107;SDS011;11220;48.812;9.128;2023-05-21T09:15:55;2.35;;;1.83;;
22107;SDS011;11220;48.812;9.128;2023-05-21T09:18:20;2.20;;;2.00;;
22107;SDS011;11220;48.812;9.128;2023-05-21T09:20:46;3.17;;;2.50;;
22107;SDS011;11220;48.812;9.128;2023-05-21T09:23:15;2.58;;;2.20;;
22107;SDS011;11220;48.812;9.128;2023-05-21T09:25:44;3.63;;;2.10;;
22107;SDS011;11220;48.812;9.128;2023-05-21T09:28:11;2.92;;;2.10;;
22107;SDS011;11220;48.812;9.128;2023-05-21T09:30:47;2.40;;;2.10;;
22107;SDS011;11220;48.812;9.128;2023-05-21T09:33:26;3.22;;;2.40;;
22107;SDS011;11220;48.812;9.128;2023-05-21T09:35:55;2.75;;;2.10;;
22107;SDS011;11220;48.812;9.128;2023-05-21T09:38:21;3.28;;;2.53;;
22107;SDS011;11220;48.812;9.128;2023-05-21T09:43:23;2.83;;;2.53;;
22107;SDS011;11220;48.812;9.128;2023-05-21T09:45:53;2.58;;;2.38;;
22107;SDS011;11220;48.812;9.128;2023-05-21T09:51:17;2.67;;;2.33;;
22107;SDS011;11220;48.812;9.128;2023-05-21T09:53:47;2.70;;;2.10;;
22107;SDS011;11220;48.812;9.128;2023-05-21T09:56:22;2.53;;;2.20;;
22107;SDS011;11220;48.812;9.128;2023-05-21T09:58:52;2.33;;;2.13;;
22107;SDS011;11220;48.812;9.128;2023-05-21T10:01:19;3.10;;;2.35;;
22107;SDS011;11220;48.812;9.128;2023-05-21T10:03:46;2.67;;;2.47;;
22107;SDS011;11220;48.812;9.128;2023-05-21T10:06:20;2.55;;;2.10;;
22107;SDS011;11220;48.812;9.128;2023-05-21T10:08:48;2.92;;;2.63;;
22107;SDS011;11220;48.812;9.128;2023-05-21T10:11:18;2.60;;;2.22;;
22107;SDS011;11220;48.812;9.128;2023-05-21T10:13:47;2.45;;;2.25;;
22107;SDS011;11220;48.812;9.128;2023-05-21T10:16:15;2.67;;;2.33;;
22107;SDS011;11220;48.812;9.128;2023-05-21T10:18:42;3.25;;;2.85;;
22107;SDS011;11220;48.812;9.128;2023-05-21T10:21:10;2.80;;;2.38;;
22107;SDS011;11220;48.812;9.128;2023-05-21T10:23:35;2.97;;;2.60;;
22107;SDS011;11220;48.812;9.128;2023-05-21T10:26:02;3.63;;;2.65;;
22107;SDS011;11220;48.812;9.128;2023-05-21T10:28:29;3.38;;;3.00;;
22107;SDS011;11220;48.812;9.128;2023-05-21T10:30:57;3.33;;;3.00;;
22107;SDS011;11220;48.812;9.128;2023-05-21T10:33:23;3.20;;;2.90;;
22107;SDS011;11220;48.812;9.128;2023-05-21T10:38:18;4.15;;;3.05;;
22107;SDS011;11220;48.812;9.128;2023-05-21T10:40:45;4.03;;;3.30;;
22107;SDS011;11220;48.812;9.128;2023-05-21T10:53:58;4.65;;;3.45;;
22107;SDS011;11220;48.812;9.128;2023-05-21T10:59:35;5.65;;;3.95;;
22107;SDS011;11220;48.812;9.128;2023-05-21T11:02:08;5.18;;;3.88;;
22107;SDS011;11220;48.812;9.128;2023-05-21T11:04:37;4.43;;;3.72;;
22107;SDS011;11220;48.812;9.128;2023-05-21T11:07:06;3.92;;;3.17;;
22107;SDS011;11220;48.812;9.128;2023-05-21T11:09:32;3.92;;;3.28;;
22107;SDS011;11220;48.812;9.128;2023-05-21T11:11:58;4.78;;;3.70;;
22107;SDS011;11220;48.812;9.128;2023-05-21T11:14:31;4.13;;;3.47;;
22107;SDS011;11220;48.812;9.128;2023-05-21T11:24:52;4.18;;;3.63;;
22107;SDS011;11220;48.812;9.128;2023-05-21T11:29:58;3.97;;;3.38;;
22107;SDS011;11220;48.812;9.128;2023-05-21T11:32:24;4.00;;;3.47;;
22107;SDS011;11220;48.812;9.128;2023-05-21T11:34:49;4.82;;;4.22;;
22107;SDS011;11220;48.812;9.128;2023-05-21T11:39:41;5.20;;;3.53;;
22107;SDS011;11220;48.812;9.128;2023-05-21T11:42:07;4.97;;;3.92;;
22107;SDS011;11220;48.812;9.128;2023-05-21T11:44:43;5.82;;;4.10;;
22107;SDS011;11220;48.812;9.128;2023-05-21T11:47:13;4.88;;;3.70;;
22107;SDS011;11220;48.812;9.128;2023-05-21T11:49:40;3.88;;;3.47;;
22107;SDS011;11220;48.812;9.128;2023-05-21T11:52:06;5.72;;;4.13;;
22107;SDS011;11220;48.812;9.128;2023-05-21T11:54:38;4.07;;;3.60;;
22107;SDS011;11220;48.812;9.128;2023-05-21T11:57:07;4.80;;;3.53;;
22107;SDS011;11220;48.812;9.128;2023-05-21T11:59:33;4.40;;;3.78;;
22107;SDS011;11220;48.812;9.128;2023-05-21T12:01:59;4.60;;;3.92;;
22107;SDS011;11220;48.812;9.128;2023-05-21T12:04:29;4.03;;;3.63;;
22107;SDS011;11220;48.812;9.128;2023-05-21T12:06:55;5.15;;;3.70;;
22107;SDS011;11220;48.812;9.128;2023-05-21T12:09:22;4.97;;;3.67;;
22107;SDS011;11220;48.812;9.128;2023-05-21T12:11:48;4.10;;;3.70;;
22107;SDS011;11220;48.812;9.128;2023-05-21T12:14:15;4.28;;;3.55;;
22107;SDS011;11220;48.812;9.128;2023-05-21T12:16:41;4.85;;;3.50;;
22107;SDS011;11220;48.812;9.128;2023-05-21T12:19:07;3.75;;;3.28;;
22107;SDS011;11220;48.812;9.128;2023-05-21T12:21:33;4.25;;;3.30;;
22107;SDS011;11220;48.812;9.128;2023-05-21T12:23:59;5.30;;;3.80;;
22107;SDS011;11220;48.812;9.128;2023-05-21T12:26:25;4.72;;;3.35;;
22107;SDS011;11220;48.812;9.128;2023-05-21T12:28:54;3.30;;;2.97;;
22107;SDS011;11220;48.812;9.128;2023-05-21T12:31:21;4.00;;;3.60;;
22107;SDS011;11220;48.812;9.128;2023-05-21T12:33:48;4.38;;;3.55;;
22107;SDS011;11220;48.812;9.128;2023-05-21T12:36:35;3.97;;;3.20;;
22107;SDS011;11220;48.812;9.128;2023-05-21T12:39:02;4.40;;;3.58;;
22107;SDS011;11220;48.812;9.128;2023-05-21T12:41:28;4.05;;;3.22;;
22107;SDS011;11220;48.812;9.128;2023-05-21T12:43:53;4.43;;;3.50;;
22107;SDS011;11220;48.812;9.128;2023-05-21T12:46:19;3.45;;;3.15;;
22107;SDS011;11220;48.812;9.128;2023-05-21T12:48:47;5.13;;;3.40;;
22107;SDS011;11220;48.812;9.128;2023-05-21T12:51:15;4.82;;;3.50;;
22107;SDS011;11220;48.812;9.128;2023-05-21T12:53:41;4.05;;;3.35;;
22107;SDS011;11220;48.812;9.128;2023-05-21T12:56:08;4.43;;;3.22;;
22107;SDS011;11220;48.812;9.128;2023-05-21T12:58:34;3.63;;;3.08;;
22107;SDS011;11220;48.812;9.128;2023-05-21T13:01:04;3.53;;;3.22;;
22107;SDS011;11220;48.812;9.128;2023-05-21T13:03:33;4.68;;;3.50;;
22107;SDS011;11220;48.812;9.128;2023-05-21T13:05:59;3.35;;;3.00;;
22107;SDS011;11220;48.812;9.128;2023-05-21T13:08:25;3.15;;;2.70;;
22107;SDS011;11220;48.812;9.128;2023-05-21T13:10:51;3.90;;;3.47;;
22107;SDS011;11220;48.812;9.128;2023-05-21T13:13:17;3.83;;;2.90;;
22107;SDS011;11220;48.812;9.128;2023-05-21T13:15:42;3.40;;;2.97;;
22107;SDS011;11220;48.812;9.128;2023-05-21T13:18:08;3.83;;;3.13;;
22107;SDS011;11220;48.812;9.128;2023-05-21T13:20:33;3.67;;;2.90;;
22107;SDS011;11220;48.812;9.128;2023-05-21T13:23:00;4.57;;;3.55;;
22107;SDS011;11220;48.812;9.128;2023-05-21T13:25:25;3.60;;;2.65;;
22107;SDS011;11220;48.812;9.128;2023-05-21T13:27:57;3.83;;;3.30;;
22107;SDS011;11220;48.812;9.128;2023-05-21T13:30:25;3.22;;;2.92;;
22107;SDS011;11220;48.812;9.128;2023-05-21T13:32:50;4.60;;;3.13;;
22107;SDS011;11220;48.812;9.128;2023-05-21T13:35:16;4.05;;;3.30;;
22107;SDS011;11220;48.812;9.128;2023-05-21T13:37:42;4.15;;;3.35;;
22107;SDS011;11220;48.812;9.128;2023-05-21T13:40:08;4.65;;;3.10;;
22107;SDS011;11220;48.812;9.128;2023-05-21T13:42:35;3.17;;;2.55;;
22107;SDS011;11220;48.812;9.128;2023-05-21T13:45:02;3.53;;;3.15;;
22107;SDS011;11220;48.812;9.128;2023-05-21T13:49:57;3.47;;;2.88;;
22107;SDS011;11220;48.812;9.128;2023-05-21T13:52:23;3.28;;;2.95;;
22107;SDS011;11220;48.812;9.128;2023-05-21T13:54:49;4.78;;;3.40;;
22107;SDS011;11220;48.812;9.128;2023-05-21T13:57:14;3.97;;;3.10;;
22107;SDS011;11220;48.812;9.128;2023-05-21T13:59:40;3.63;;;2.90;;
22107;SDS011;11220;48.812;9.128;2023-05-21T14:02:07;3.50;;;2.75;;
22107;SDS011;11220;48.812;9.128;2023-05-21T14:04:33;3.85;;;3.05;;
22107;SDS011;11220;48.812;9.128;2023-05-21T14:06:59;3.38;;;3.03;;
22107;SDS011;11220;48.812;9.128;2023-05-21T14:09:24;4.68;;;3.30;;
22107;SDS011;11220;48.812;9.128;2023-05-21T14:11:53;3.93;;;3.37;;
22107;SDS011;11220;48.812;9.128;2023-05-21T14:14:20;3.28;;;2.67;;
22107;SDS011;11220;48.812;9.128;2023-05-21T14:16:46;4.40;;;3.05;;
22107;SDS011;11220;48.812;9.128;2023-05-21T14:19:13;3.58;;;3.22;;
22107;SDS011;11220;48.812;9.128;2023-05-21T14:21:39;4.82;;;3.35;;
22107;SDS011;11220;48.812;9.128;2023-05-21T14:24:05;3.88;;;2.92;;
22107;SDS011;11220;48.812;9.128;2023-05-21T14:26:30;3.28;;;2.95;;
22107;SDS011;11220;48.812;9.128;2023-05-21T14:28:56;3.72;;;2.95;;
22107;SDS011;11220;48.812;9.128;2023-05-21T14:31:21;4.30;;;3.10;;
22107;SDS011;11220;48.812;9.128;2023-05-21T14:33:48;4.00;;;3.30;;
22107;SDS011;11220;48.812;9.128;2023-05-21T14:36:14;4.40;;;3.00;;
22107;SDS011;11220;48.812;9.128;2023-05-21T14:38:40;3.47;;;2.70;;
22107;SDS011;11220;48.812;9.128;2023-05-21T14:41:05;3.20;;;2.90;;
22107;SDS011;11220;48.812;9.128;2023-05-21T14:43:31;3.33;;;2.90;;
22107;SDS011;11220;48.812;9.128;2023-05-21T14:45:57;3.45;;;2.85;;
22107;SDS011;11220;48.812;9.128;2023-05-21T14:48:23;3.85;;;2.72;;
22107;SDS011;11220;48.812;9.128;2023-05-21T14:50:49;3.13;;;2.70;;
22107;SDS011;11220;48.812;9.128;2023-05-21T14:53:15;3.53;;;2.80;;
22107;SDS011;11220;48.812;9.128;2023-05-21T14:55:41;3.30;;;3.00;;
22107;SDS011;11220;48.812;9.128;2023-05-21T14:58:07;3.35;;;2.80;;
22107;SDS011;11220;48.812;9.128;2023-05-21T15:00:34;3.88;;;3.33;;
22107;SDS011;11220;48.812;9.128;2023-05-21T15:03:00;3.85;;;3.40;;
22107;SDS011;11220;48.812;9.128;2023-05-21T15:05:26;3.53;;;2.88;;
22107;SDS011;11220;48.812;9.128;2023-05-21T15:07:53;3.25;;;2.90;;
22107;SDS011;11220;48.812;9.128;2023-05-21T15:10:27;3.70;;;2.88;;
22107;SDS011;11220;48.812;9.128;2023-05-21T15:12:53;3.40;;;2.70;;
22107;SDS011;11220;48.812;9.128;2023-05-21T15:15:19;3.38;;;2.88;;
22107;SDS011;11220;48.812;9.128;2023-05-21T15:17:45;3.38;;;2.63;;
22107;SDS011;11220;48.812;9.128;2023-05-21T15:20:12;3.95;;;3.10;;
22107;SDS011;11220;48.812;9.128;2023-05-21T15:22:38;3.22;;;2.63;;
22107;SDS011;11220;48.812;9.128;2023-05-21T15:25:04;3.60;;;2.63;;
22107;SDS011;11220;48.812;9.128;2023-05-21T15:27:30;3.28;;;2.90;;
22107;SDS011;11220;48.812;9.128;2023-05-21T15:29:56;4.10;;;2.70;;
22107;SDS011;11220;48.812;9.128;2023-05-21T15:32:24;2.72;;;2.53;;